Terminal Aerodrome Forecast
Issued by NWS Jackson, MS

Home | Current Version | Previous Version | Text Only | Print | Product List | Glossary On
Versions: 1 2 3 4 5 6 7 8 9 10 11 12
000
FTUS44 KJAN 280536
TAFGLH
TAF
KGLH 280536Z 2806/2906 20010KT P6SM SCT060
     FM280900 20010KT P6SM VCTS SCT015 BKN025CB
     FM281200 22015G20KT P6SM VCSH BKN035
     FM281800 22015G22KT P6SM VCTS BKN050CB
     FM290100 23006KT P6SM BKN070=

USA.gov is the U.S. government's official web portal to all federal, state and local government web resources and services.